createdAt,value
2022-10-22T00:01:10.349Z,183.13
2022-10-22T00:03:38.152Z,183.98
2022-10-22T00:06:06.463Z,185.32
2022-10-22T00:08:34.835Z,186.85
2022-10-22T00:11:10.649Z,190.43
2022-10-22T00:13:40.134Z,185.48
2022-10-22T00:16:08.955Z,184.73
2022-10-22T00:18:37.252Z,185.88
2022-10-22T00:21:06.127Z,184.10
2022-10-22T00:23:34.132Z,183.07
2022-10-22T00:26:02.387Z,187.07
2022-10-22T00:28:30.506Z,187.75
2022-10-22T00:31:01.029Z,181.05
2022-10-22T00:33:30.345Z,183.05
2022-10-22T00:35:58.299Z,180.20
2022-10-22T00:38:26.308Z,190.57
2022-10-22T00:40:54.202Z,184.20
2022-10-22T00:43:22.206Z,183.07
2022-10-22T00:45:50.372Z,183.07
2022-10-22T00:48:27.829Z,182.43
2022-10-22T00:50:59.255Z,189.25
2022-10-22T00:53:30.832Z,190.32
2022-10-22T00:55:59.199Z,193.20
2022-10-22T00:58:29.934Z,187.45
2022-10-22T01:00:58.544Z,179.80
2022-10-22T01:03:27.839Z,182.82
2022-10-22T01:05:58.392Z,190.05
2022-10-22T01:08:33.841Z,181.57
2022-10-22T01:11:12.737Z,177.57
2022-10-22T01:13:50.207Z,181.30
2022-10-22T01:16:23.275Z,177.82
2022-10-22T01:19:01.425Z,183.88
2022-10-22T01:21:35.869Z,182.85
2022-10-22T01:24:45.345Z,186.10
2022-10-22T01:27:30.457Z,176.05
2022-10-22T01:30:04.514Z,177.75
2022-10-22T01:32:38.157Z,175.90
2022-10-22T01:35:10.312Z,179.88
2022-10-22T01:37:43.259Z,170.23
2022-10-22T01:40:13.069Z,172.60
2022-10-22T01:42:40.908Z,181.05
2022-10-22T01:45:15.146Z,175.23
2022-10-22T01:47:55.491Z,182.65
2022-10-22T01:50:43.074Z,182.77
2022-10-22T01:53:26.709Z,187.13
2022-10-22T01:56:04.440Z,187.40
2022-10-22T01:58:41.928Z,187.18
2022-10-22T02:01:19.725Z,186.90
2022-10-22T02:03:57.489Z,195.82
2022-10-22T02:06:28.370Z,190.73
2022-10-22T02:08:57.934Z,188.48
2022-10-22T02:11:25.760Z,187.75
2022-10-22T02:13:57.637Z,187.43
2022-10-22T02:16:33.214Z,184.60
2022-10-22T02:19:04.291Z,187.50
2022-10-22T02:21:33.055Z,195.98
2022-10-22T02:24:01.162Z,193.15
2022-10-22T02:26:34.319Z,179.95
2022-10-22T02:29:08.214Z,160.20
2022-10-22T02:31:41.518Z,149.73
2022-10-22T02:34:14.590Z,154.00
2022-10-22T02:36:48.075Z,179.90
2022-10-22T02:39:20.178Z,184.18
2022-10-22T02:41:48.269Z,184.70
2022-10-22T02:44:16.117Z,191.98
2022-10-22T02:46:45.569Z,191.85
2022-10-22T02:49:13.373Z,182.32
2022-10-22T02:51:41.554Z,188.75
2022-10-22T02:54:09.676Z,196.88
2022-10-22T02:56:37.974Z,193.60
2022-10-22T02:59:05.832Z,193.27
2022-10-22T03:01:34.168Z,184.68
2022-10-22T03:04:03.901Z,192.20
2022-10-22T03:06:31.788Z,187.68
2022-10-22T03:08:59.710Z,180.70
2022-10-22T03:11:27.751Z,175.00
2022-10-22T03:13:55.906Z,179.20
2022-10-22T03:16:23.748Z,183.00
2022-10-22T03:18:51.718Z,188.02
2022-10-22T03:21:29.438Z,178.90
2022-10-22T03:23:58.189Z,175.38
2022-10-22T03:26:27.057Z,177.90
2022-10-22T03:28:55.550Z,190.00
2022-10-22T03:31:23.361Z,192.63
2022-10-22T03:33:51.170Z,182.05
2022-10-22T03:36:19.420Z,182.90
2022-10-22T03:38:49.105Z,188.93
2022-10-22T03:41:16.961Z,181.10
2022-10-22T03:43:49.607Z,178.05
2022-10-22T03:46:17.654Z,179.93
2022-10-22T03:48:45.497Z,181.15
2022-10-22T03:51:13.288Z,184.20
2022-10-22T03:53:41.131Z,190.15
2022-10-22T03:56:11.459Z,192.13
2022-10-22T03:58:40.754Z,192.52
2022-10-22T04:01:09.979Z,193.93
2022-10-22T04:03:38.292Z,195.25
2022-10-22T04:06:08.456Z,187.30
2022-10-22T04:08:36.524Z,184.57
2022-10-22T04:11:04.629Z,188.75
2022-10-22T04:13:33.869Z,189.07
2022-10-22T04:16:09.045Z,193.35
2022-10-22T04:18:37.328Z,188.73
2022-10-22T04:21:05.931Z,184.65
2022-10-22T04:23:33.959Z,179.52
2022-10-22T04:26:03.629Z,184.32
2022-10-22T04:28:31.557Z,188.82
2022-10-22T04:31:00.969Z,193.70
2022-10-22T04:33:29.125Z,189.55
2022-10-22T04:35:56.918Z,189.95
2022-10-22T04:38:24.838Z,194.02
2022-10-22T04:40:52.680Z,191.07
2022-10-22T04:43:20.547Z,201.90
2022-10-22T04:45:48.477Z,190.70
2022-10-22T04:48:17.759Z,193.60
2022-10-22T04:50:45.556Z,183.85
2022-10-22T04:53:13.617Z,185.98
2022-10-22T04:55:41.456Z,191.02
2022-10-22T04:58:09.478Z,183.85
2022-10-22T05:00:37.539Z,184.25
2022-10-22T05:03:05.590Z,194.55
2022-10-22T05:05:35.370Z,195.40
2022-10-22T05:08:03.356Z,189.73
2022-10-22T05:10:31.266Z,191.38
2022-10-22T05:12:59.113Z,195.90
2022-10-22T05:15:27.063Z,190.45
2022-10-22T05:17:54.837Z,183.88
2022-10-22T05:20:22.667Z,192.30
2022-10-22T05:22:51.962Z,182.63
2022-10-22T05:25:19.813Z,179.70
2022-10-22T05:27:50.503Z,182.43
2022-10-22T05:30:18.333Z,177.20
2022-10-22T05:32:46.140Z,187.27
2022-10-22T05:35:14.000Z,189.68
2022-10-22T05:37:42.311Z,183.98
2022-10-22T05:40:26.601Z,188.70
2022-10-22T05:43:00.374Z,191.15
2022-10-22T05:45:28.504Z,188.77
2022-10-22T05:47:56.760Z,197.07
2022-10-22T05:50:24.632Z,194.02
2022-10-22T05:52:52.581Z,191.93
2022-10-22T05:55:22.209Z,191.93
2022-10-22T05:57:50.317Z,197.10
2022-10-22T06:00:18.821Z,200.70
2022-10-22T06:02:51.024Z,199.30
2022-10-22T06:05:18.980Z,192.90
2022-10-22T06:07:47.269Z,194.27
2022-10-22T06:10:18.181Z,186.65
2022-10-22T06:12:48.635Z,194.82
2022-10-22T06:15:18.941Z,187.85
2022-10-22T06:17:47.424Z,189.70
2022-10-22T06:20:16.396Z,188.35
2022-10-22T06:22:44.267Z,190.13
2022-10-22T06:25:12.633Z,188.30
2022-10-22T06:27:40.689Z,184.60
2022-10-22T06:30:11.193Z,167.30
2022-10-22T06:32:39.244Z,156.90
2022-10-22T06:35:08.299Z,158.77
2022-10-22T06:37:36.248Z,160.45
2022-10-22T06:40:04.305Z,152.80
2022-10-22T06:42:32.084Z,149.43
2022-10-22T06:47:37.268Z,156.27
2022-10-22T06:50:06.075Z,163.55
2022-10-22T06:52:33.915Z,166.90
2022-10-22T06:55:02.289Z,176.57
2022-10-22T06:57:31.225Z,170.93
2022-10-22T06:59:59.060Z,169.43
2022-10-22T07:02:26.852Z,162.30
2022-10-22T07:04:56.309Z,160.82
2022-10-22T07:07:24.391Z,160.55
2022-10-22T07:09:52.247Z,173.85
2022-10-22T07:12:20.138Z,173.88
2022-10-22T07:14:48.196Z,182.13
2022-10-22T07:17:16.272Z,175.75
2022-10-22T07:19:45.289Z,176.30
2022-10-22T07:22:16.805Z,181.23
2022-10-22T07:24:44.739Z,185.40
2022-10-22T07:27:12.641Z,182.75
2022-10-22T07:29:40.453Z,176.07
2022-10-22T07:32:08.623Z,178.50
2022-10-22T07:34:38.427Z,187.93
2022-10-22T07:37:08.390Z,180.05
2022-10-22T07:39:37.848Z,171.75
2022-10-22T07:42:05.716Z,181.77
2022-10-22T07:44:33.519Z,190.45
2022-10-22T07:47:01.315Z,179.80
2022-10-22T07:49:29.262Z,179.85
2022-10-22T07:51:57.826Z,192.38
2022-10-22T07:54:25.738Z,189.32
2022-10-22T07:56:55.106Z,193.05
2022-10-22T07:59:22.998Z,197.90
2022-10-22T08:01:50.998Z,195.50
2022-10-22T08:04:18.775Z,201.70
2022-10-22T08:06:47.374Z,191.52
2022-10-22T08:09:15.974Z,189.50
2022-10-22T08:11:43.816Z,199.20
2022-10-22T08:14:13.101Z,193.10
2022-10-22T08:16:41.347Z,200.02
2022-10-22T08:19:09.161Z,198.73
2022-10-22T08:21:37.390Z,199.05
2022-10-22T08:26:33.896Z,205.90
2022-10-22T08:29:03.470Z,207.45
2022-10-22T08:31:32.690Z,202.68
2022-10-22T08:34:00.558Z,205.90
2022-10-22T08:36:28.683Z,203.45
2022-10-22T08:38:56.670Z,213.05
2022-10-22T08:41:25.873Z,204.88
2022-10-22T08:44:25.945Z,212.43
2022-10-22T08:47:20.042Z,210.60
2022-10-22T08:49:50.516Z,204.48
2022-10-22T08:52:20.967Z,202.02
2022-10-22T08:54:53.866Z,218.15
2022-10-22T08:57:39.868Z,206.10
2022-10-22T09:00:29.933Z,203.20
2022-10-22T09:03:20.263Z,213.38
2022-10-22T09:05:57.245Z,204.77
2022-10-22T09:08:25.217Z,212.20
2022-10-22T09:11:03.493Z,207.70
2022-10-22T09:13:31.550Z,201.68
2022-10-22T09:16:12.684Z,215.65
2022-10-22T09:18:48.417Z,218.38
2022-10-22T09:21:27.635Z,217.30
2022-10-22T09:24:10.874Z,205.88
2022-10-22T09:26:41.423Z,209.88
2022-10-22T09:29:19.215Z,201.40
2022-10-22T09:31:47.621Z,205.18
2022-10-22T09:34:22.242Z,208.20
2022-10-22T09:36:59.764Z,213.05
2022-10-22T09:39:29.585Z,215.43
2022-10-22T09:41:57.412Z,215.13
2022-10-22T09:44:25.312Z,212.80
2022-10-22T09:46:53.469Z,209.60
2022-10-22T09:49:27.909Z,218.18
2022-10-22T09:51:57.830Z,215.15
2022-10-22T09:54:27.809Z,215.82
2022-10-22T09:56:58.808Z,202.77
2022-10-22T09:59:30.792Z,218.18
2022-10-22T10:02:13.535Z,220.82
2022-10-22T10:04:51.925Z,214.25
2022-10-22T10:07:23.952Z,199.57
2022-10-22T10:09:53.622Z,199.90
2022-10-22T10:12:34.678Z,197.02
2022-10-22T10:15:14.337Z,198.07
2022-10-22T10:17:51.986Z,199.20
2022-10-22T10:20:35.600Z,185.90
2022-10-22T10:23:09.480Z,185.50
2022-10-22T10:25:44.807Z,179.57
2022-10-22T10:28:22.389Z,176.63
2022-10-22T10:30:58.840Z,188.07
2022-10-22T10:33:36.832Z,201.35
2022-10-22T10:36:13.468Z,214.10
2022-10-22T10:38:53.660Z,226.07
2022-10-22T10:41:34.003Z,222.75
2022-10-22T10:44:21.503Z,220.80
2022-10-22T10:46:56.188Z,221.15
2022-10-22T10:49:26.741Z,224.35
2022-10-22T10:52:02.855Z,221.45
2022-10-22T10:54:45.781Z,225.93
2022-10-22T10:57:23.893Z,227.68
2022-10-22T11:00:03.076Z,239.15
2022-10-22T11:03:17.025Z,241.85
2022-10-22T11:05:49.675Z,240.30
2022-10-22T11:08:22.408Z,238.85
2022-10-22T11:10:53.193Z,239.43
2022-10-22T11:13:28.478Z,244.32
2022-10-22T11:16:02.080Z,246.98
2022-10-22T11:18:35.720Z,238.02
2022-10-22T11:21:19.228Z,238.55
2022-10-22T11:23:53.527Z,241.30
2022-10-22T11:26:37.752Z,248.85
2022-10-22T11:29:08.357Z,238.05
2022-10-22T11:31:36.803Z,240.43
2022-10-22T11:34:31.998Z,234.80
2022-10-22T11:37:00.952Z,243.95
2022-10-22T11:39:38.872Z,245.52
2022-10-22T11:42:10.678Z,237.35
2022-10-22T11:44:49.427Z,234.52
2022-10-22T11:47:21.110Z,240.80
2022-10-22T11:49:59.004Z,245.88
2022-10-22T11:52:39.488Z,254.80
2022-10-22T11:55:45.958Z,241.70
2022-10-22T11:58:33.105Z,247.75
2022-10-22T12:01:22.658Z,243.40
2022-10-22T12:03:52.605Z,241.50
2022-10-22T12:06:23.322Z,241.68
2022-10-22T12:09:03.728Z,249.32
2022-10-22T12:11:41.492Z,249.57
2022-10-22T12:14:20.589Z,247.45
2022-10-22T12:16:57.247Z,239.55
2022-10-22T12:19:29.266Z,236.32
2022-10-22T12:22:01.157Z,238.63
2022-10-22T12:24:33.748Z,251.07
2022-10-22T12:27:03.090Z,243.27
2022-10-22T12:29:33.894Z,249.20
2022-10-22T12:32:04.896Z,267.05
2022-10-22T12:34:32.686Z,253.25
2022-10-22T12:37:00.589Z,247.48
2022-10-22T12:39:30.040Z,256.30
2022-10-22T12:41:58.159Z,264.67
2022-10-22T12:44:27.332Z,254.73
2022-10-22T12:46:57.052Z,260.60
2022-10-22T12:49:30.490Z,260.58
2022-10-22T12:52:03.014Z,261.55
2022-10-22T12:54:33.369Z,266.83
2022-10-22T12:57:02.045Z,269.17
2022-10-22T12:59:36.644Z,262.20
2022-10-22T13:02:16.241Z,264.80
2022-10-22T13:04:44.152Z,277.38
2022-10-22T13:07:22.115Z,266.75
2022-10-22T13:09:59.826Z,268.00
2022-10-22T13:12:29.434Z,269.38
2022-10-22T13:14:58.632Z,274.40
2022-10-22T13:17:41.775Z,271.95
2022-10-22T13:20:21.779Z,266.90
2022-10-22T13:23:00.313Z,266.02
2022-10-22T13:25:31.772Z,282.33
2022-10-22T13:28:02.027Z,282.05
2022-10-22T13:30:33.973Z,261.80
2022-10-22T13:33:04.327Z,275.60
2022-10-22T13:35:34.861Z,282.27
2022-10-22T13:38:03.244Z,264.85
2022-10-22T13:40:31.394Z,274.73
2022-10-22T13:42:59.520Z,262.35
2022-10-22T13:45:28.293Z,266.95
2022-10-22T13:47:57.627Z,252.82
2022-10-22T13:50:25.436Z,259.08
2022-10-22T13:52:55.751Z,262.15
2022-10-22T13:55:26.716Z,264.55
2022-10-22T13:57:56.319Z,267.00
2022-10-22T14:00:24.881Z,256.83
2022-10-22T14:02:56.164Z,262.60
2022-10-22T14:05:25.372Z,265.17
2022-10-22T14:07:53.695Z,276.23
2022-10-22T14:10:23.805Z,249.90
2022-10-22T14:12:53.642Z,248.43
2022-10-22T14:15:23.863Z,245.23
2022-10-22T14:17:56.903Z,253.75
2022-10-22T14:20:29.296Z,247.65
2022-10-22T14:23:01.570Z,238.55
2022-10-22T14:25:31.473Z,217.40
2022-10-22T14:27:59.325Z,220.63
2022-10-22T14:30:30.388Z,224.85
2022-10-22T14:32:59.288Z,218.10
2022-10-22T14:35:28.620Z,219.45
2022-10-22T14:38:03.817Z,212.77
2022-10-22T14:40:32.197Z,206.80
2022-10-22T14:43:00.304Z,218.85
2022-10-22T14:45:28.698Z,208.77
2022-10-22T14:48:01.968Z,225.77
2022-10-22T14:50:31.123Z,228.75
2022-10-22T14:52:59.865Z,227.90
2022-10-22T14:55:29.007Z,232.63
2022-10-22T14:57:57.994Z,226.15
2022-10-22T15:01:13.284Z,218.25
2022-10-22T15:03:41.269Z,224.45
2022-10-22T15:06:10.596Z,225.02
2022-10-22T15:08:39.694Z,219.23
2022-10-22T15:11:11.281Z,207.77
2022-10-22T15:13:39.444Z,237.52
2022-10-22T15:16:13.160Z,233.23
2022-10-22T15:18:40.969Z,220.40
2022-10-22T15:21:19.523Z,211.65
2022-10-22T15:23:48.172Z,218.18
2022-10-22T15:26:25.429Z,223.18
2022-10-22T15:28:53.240Z,223.02
2022-10-22T15:31:45.338Z,230.75
2022-10-22T15:34:13.513Z,226.90
2022-10-22T15:36:45.413Z,224.52
2022-10-22T15:39:13.208Z,227.40
2022-10-22T15:41:41.049Z,206.77
2022-10-22T15:44:09.144Z,218.07
2022-10-22T15:46:36.986Z,210.95
2022-10-22T15:49:04.820Z,219.43
2022-10-22T15:51:32.855Z,231.07
2022-10-22T15:54:04.339Z,240.77
2022-10-22T15:56:34.750Z,234.82
2022-10-22T15:59:06.370Z,231.23
2022-10-22T16:01:35.669Z,235.60
2022-10-22T16:04:03.770Z,240.90
2022-10-22T16:06:33.821Z,241.52
2022-10-22T16:09:05.782Z,234.20
2022-10-22T16:11:34.813Z,226.80
2022-10-22T16:14:02.887Z,235.57
2022-10-22T16:16:32.409Z,220.68
2022-10-22T16:19:00.360Z,224.73
2022-10-22T16:21:28.883Z,226.23
2022-10-22T16:23:56.746Z,227.32
2022-10-22T16:26:25.946Z,225.52
2022-10-22T16:28:53.776Z,227.30
2022-10-22T16:31:21.559Z,226.20
2022-10-22T16:33:50.401Z,219.68
2022-10-22T16:36:20.273Z,228.32
2022-10-22T16:38:49.569Z,227.65
2022-10-22T16:41:19.505Z,225.05
2022-10-22T16:43:50.791Z,222.43
2022-10-22T16:46:20.401Z,234.02
2022-10-22T16:48:49.207Z,224.75
2022-10-22T16:51:19.797Z,218.65
2022-10-22T16:53:48.000Z,240.20
2022-10-22T16:56:17.227Z,222.73
2022-10-22T16:58:48.157Z,217.93
2022-10-22T17:01:18.420Z,223.70
2022-10-22T17:03:47.332Z,220.20
2022-10-22T17:06:17.718Z,221.43
2022-10-22T17:08:45.677Z,218.60
2022-10-22T17:11:17.153Z,221.95
2022-10-22T17:13:46.867Z,217.43
2022-10-22T17:16:18.292Z,223.50
2022-10-22T17:18:53.475Z,220.82
2022-10-22T17:21:22.459Z,225.02
2022-10-22T17:23:51.835Z,221.23
2022-10-22T17:26:22.768Z,210.88
2022-10-22T17:28:51.258Z,214.80
2022-10-22T17:31:25.298Z,213.57
2022-10-22T17:33:54.963Z,210.10
2022-10-22T17:36:25.693Z,205.63
2022-10-22T17:38:55.321Z,211.10
2022-10-22T17:41:26.414Z,210.23
2022-10-22T17:43:54.357Z,211.07
2022-10-22T17:46:25.014Z,221.25
2022-10-22T17:48:53.846Z,212.60
2022-10-22T17:51:22.744Z,202.25
2022-10-22T17:53:52.818Z,197.80
2022-10-22T17:56:23.067Z,206.43
2022-10-22T17:58:52.997Z,203.77
2022-10-22T18:01:29.869Z,198.90
2022-10-22T18:04:01.212Z,188.65
2022-10-22T18:06:29.821Z,178.80
2022-10-22T18:08:57.742Z,168.20
2022-10-22T18:11:30.028Z,165.45
2022-10-22T18:14:02.645Z,184.85
2022-10-22T18:16:32.475Z,175.23
2022-10-22T18:19:12.651Z,184.85
2022-10-22T18:21:43.032Z,189.65
2022-10-22T18:24:11.461Z,189.23
2022-10-22T18:26:39.333Z,193.85
2022-10-22T18:29:11.054Z,193.68
2022-10-22T18:31:40.601Z,197.20
2022-10-22T18:34:08.480Z,194.60
2022-10-22T18:36:36.330Z,190.38
2022-10-22T18:39:06.041Z,190.63
2022-10-22T18:41:35.955Z,189.88
2022-10-22T18:44:06.293Z,207.00
2022-10-22T18:46:41.157Z,196.15
2022-10-22T18:49:19.195Z,195.27
2022-10-22T18:51:48.832Z,196.85
2022-10-22T18:54:23.116Z,190.82
2022-10-22T18:56:51.999Z,187.20
2022-10-22T18:59:24.349Z,199.80
2022-10-22T19:01:57.634Z,195.05
2022-10-22T19:04:30.962Z,194.63
2022-10-22T19:07:00.279Z,199.20
2022-10-22T19:09:36.754Z,214.18
2022-10-22T19:12:06.989Z,209.90
2022-10-22T19:14:34.775Z,209.80
2022-10-22T19:17:02.933Z,220.73
2022-10-22T19:19:36.174Z,218.48
2022-10-22T19:22:04.682Z,215.20
2022-10-22T19:24:34.567Z,219.55
2022-10-22T19:27:02.445Z,213.02
2022-10-22T19:29:32.770Z,208.50
2022-10-22T19:32:00.926Z,216.63
2022-10-22T19:34:28.770Z,218.40
2022-10-22T19:37:06.436Z,216.95
2022-10-22T19:39:34.678Z,256.02
2022-10-22T19:42:06.514Z,226.15
2022-10-22T19:44:34.496Z,223.02
2022-10-22T19:47:08.098Z,219.93
2022-10-22T19:49:36.085Z,218.57
2022-10-22T19:52:08.327Z,210.70
2022-10-22T19:54:40.761Z,210.90
2022-10-22T19:57:09.207Z,207.10
2022-10-22T19:59:37.213Z,216.05
2022-10-22T20:02:05.412Z,211.57
2022-10-22T20:04:34.215Z,205.98
2022-10-22T20:07:01.993Z,206.50
2022-10-22T20:09:31.173Z,203.77
2022-10-22T20:11:59.303Z,198.85
2022-10-22T20:14:30.185Z,208.30
2022-10-22T20:16:58.221Z,199.77
2022-10-22T20:19:29.286Z,193.82
2022-10-22T20:21:57.133Z,202.63
2022-10-22T20:24:24.902Z,203.20
2022-10-22T20:26:54.643Z,198.80
2022-10-22T20:29:22.556Z,194.73
2022-10-22T20:31:50.825Z,202.57
2022-10-22T20:34:18.792Z,190.95
2022-10-22T20:36:47.243Z,196.07
2022-10-22T20:39:16.624Z,200.82
2022-10-22T20:41:47.302Z,206.13
2022-10-22T20:44:18.497Z,193.45
2022-10-22T20:46:46.836Z,194.75
2022-10-22T20:49:18.921Z,196.75
2022-10-22T20:51:59.284Z,185.85
2022-10-22T20:54:29.089Z,188.57
2022-10-22T20:56:59.374Z,189.02
2022-10-22T20:59:32.977Z,196.65
2022-10-22T21:02:04.958Z,195.48
2022-10-22T21:04:32.907Z,191.27
2022-10-22T21:07:02.889Z,191.45
2022-10-22T21:09:30.844Z,191.20
2022-10-22T21:12:04.406Z,192.18
2022-10-22T21:14:40.740Z,190.70
2022-10-22T21:17:11.472Z,184.13
2022-10-22T21:19:41.212Z,185.18
2022-10-22T21:22:09.140Z,183.45
2022-10-22T21:24:37.167Z,181.55
2022-10-22T21:27:07.144Z,187.70
2022-10-22T21:29:37.540Z,183.00
2022-10-22T21:32:13.289Z,183.27
2022-10-22T21:35:07.831Z,180.38
2022-10-22T21:37:54.577Z,177.85
2022-10-22T21:40:55.150Z,179.27
2022-10-22T21:43:54.203Z,166.93
2022-10-22T21:46:44.426Z,163.15
2022-10-22T21:49:14.384Z,169.30
2022-10-22T21:51:44.227Z,170.63
2022-10-22T21:54:13.033Z,184.23
2022-10-22T21:56:41.213Z,185.18
2022-10-22T21:59:09.691Z,185.48
2022-10-22T22:01:39.027Z,176.68
2022-10-22T22:04:07.500Z,190.02
2022-10-22T22:06:36.173Z,200.35
2022-10-22T22:09:05.503Z,188.52
2022-10-22T22:11:34.267Z,172.35
2022-10-22T22:14:02.411Z,177.60
2022-10-22T22:16:33.525Z,171.68
2022-10-22T22:19:05.719Z,180.20
2022-10-22T22:21:34.632Z,181.23
2022-10-22T22:24:02.443Z,191.38
2022-10-22T22:26:31.025Z,194.07
2022-10-22T22:29:00.381Z,195.40
2022-10-22T22:31:30.364Z,199.00
2022-10-22T22:34:04.878Z,195.00
2022-10-22T22:36:35.508Z,200.60
2022-10-22T22:39:04.793Z,199.40
2022-10-22T22:41:33.229Z,195.10
2022-10-22T22:44:01.383Z,194.52
2022-10-22T22:46:29.875Z,189.23
2022-10-22T22:48:57.661Z,195.55
2022-10-22T22:51:26.852Z,188.82
2022-10-22T22:53:54.711Z,180.80
2022-10-22T22:56:24.539Z,180.25
2022-10-22T22:58:53.059Z,183.93
2022-10-22T23:01:23.151Z,189.35
2022-10-22T23:03:56.152Z,184.82
2022-10-22T23:06:26.808Z,160.90
2022-10-22T23:08:55.551Z,169.60
2022-10-22T23:11:25.367Z,170.90
2022-10-22T23:13:54.434Z,159.82
2022-10-22T23:16:25.037Z,158.82
2022-10-22T23:18:54.527Z,170.35
2022-10-22T23:21:24.947Z,159.00
2022-10-22T23:23:55.722Z,165.38
2022-10-22T23:26:25.845Z,168.90
2022-10-22T23:28:53.688Z,179.52
2022-10-22T23:31:22.861Z,182.38
2022-10-22T23:33:50.881Z,169.50
2022-10-22T23:36:19.065Z,170.32
2022-10-22T23:38:47.243Z,174.02
2022-10-22T23:41:16.416Z,167.15
2022-10-22T23:43:44.449Z,167.90
2022-10-22T23:46:14.941Z,173.73
2022-10-22T23:48:43.100Z,164.55
2022-10-22T23:51:13.435Z,175.30
2022-10-22T23:53:42.521Z,166.55
2022-10-22T23:56:14.402Z,174.75
2022-10-22T23:58:44.096Z,167.20
